Time;durP1;ratioP1;P1;durP2;ratioP2;P2;SDS_P1;SDS_P2;PMS_P1;PMS_P2;Temp;Humidity;BMP_temperature;BMP_pressure;BME280_temperature;BME280_humidity;BME280_pressure;Samples;Min_cycle;Max_cycle;Signal;HPM_P1;HPM_P2
2022/10/04 00:01:51;;;;;;;1.30;0.85;;;;;;;5.71;100.00;98346.14;1662560;86;21095;-75
2022/10/04 00:04:46;;;;;;;1.60;1.50;;;;;;;5.71;100.00;98341.77;1663007;86;21534;-75
2022/10/04 00:07:23;;;;;;;0.90;0.90;;;;;;;5.72;100.00;98337.42;1670169;85;21126;-75
2022/10/04 00:10:03;;;;;;;1.10;1.10;;;;;;;5.72;100.00;98340.03;1694465;84;21635;-74
2022/10/04 00:12:36;;;;;;;1.05;1.05;;;;;;;5.72;100.00;98339.57;1662501;86;22084;-75
2022/10/04 00:15:06;;;;;;;;;;;;;;;5.71;100.00;98342.23;1664907;86;21580;-74
2022/10/04 00:17:34;;;;;;;1.42;1.32;;;;;;;5.72;100.00;98336.11;1650987;86;20215;-74
2022/10/04 00:20:03;;;;;;;1.22;1.20;;;;;;;5.71;100.00;98333.09;1662644;86;21071;-74
2022/10/04 00:22:31;;;;;;;1.17;1.17;;;;;;;5.72;100.00;98329.59;1662801;86;21142;-74
2022/10/04 00:25:12;;;;;;;1.92;1.82;;;;;;;5.73;100.00;98335.19;1662581;85;21262;-74
2022/10/04 00:27:42;;;;;;;1.70;1.60;;;;;;;5.73;100.00;98336.50;1662839;85;21022;-75
2022/10/04 00:30:17;;;;;;;3.58;2.00;;;;;;;5.72;100.00;98339.57;1657845;86;21236;-75
2022/10/04 00:33:01;;;;;;;4.12;2.30;;;;;;;5.74;100.00;98340.83;1662781;85;21561;-74
2022/10/04 00:35:34;;;;;;;1.40;1.20;;;;;;;5.78;100.00;98345.02;1662759;85;21083;-74
2022/10/04 00:38:13;;;;;;;3.40;2.08;;;;;;;5.80;100.00;98343.23;1662877;86;21166;-74
2022/10/04 00:41:02;;;;;;;5.65;1.10;;;;;;;5.83;100.00;98346.17;1662535;85;21085;-75
2022/10/04 00:43:33;;;;;;;1.55;1.07;;;;;;;5.84;100.00;98346.59;1673292;85;22306;-74
2022/10/04 00:46:08;;;;;;;1.02;1.02;;;;;;;5.84;100.00;98360.48;1679141;84;21113;-74
2022/10/04 00:48:40;;;;;;;3.58;1.02;;;;;;;5.86;100.00;98353.91;1679138;84;21047;-75
2022/10/04 00:51:33;;;;;;;1.05;1.02;;;;;;;5.88;100.00;98350.32;1679152;84;21210;-75
2022/10/04 00:54:22;;;;;;;2.75;1.07;;;;;;;5.87;100.00;98357.78;1678610;85;21603;-75
2022/10/04 00:57:12;;;;;;;0.90;0.90;;;;;;;5.91;100.00;98358.05;1678713;84;22236;-75
2022/10/04 00:59:45;;;;;;;1.02;0.80;;;;;;;5.93;100.00;98356.27;1663509;85;21083;-76
2022/10/04 01:02:25;;;;;;;0.90;0.90;;;;;;;5.96;100.00;98359.24;1679025;84;21038;-75
2022/10/04 01:05:00;;;;;;;0.62;0.62;;;;;;;5.97;100.00;98353.56;1679284;84;21219;-74
2022/10/04 01:07:34;;;;;;;2.15;0.95;;;;;;;5.98;100.00;98356.58;1679079;84;21138;-75
2022/10/04 01:10:06;;;;;;;2.15;0.80;;;;;;;5.99;100.00;98356.99;1678803;85;21592;-74
2022/10/04 01:12:56;;;;;;;0.90;0.90;;;;;;;5.99;100.00;98355.69;1679201;84;21139;-75
2022/10/04 01:15:49;;;;;;;0.93;0.93;;;;;;;6.01;100.00;98356.02;1678985;84;21677;-75
2022/10/04 01:18:23;;;;;;;1.17;1.10;;;;;;;6.01;100.00;98349.49;1679451;84;21054;-75
2022/10/04 01:21:21;;;;;;;7.47;2.27;;;;;;;6.03;100.00;98354.66;1679109;84;21137;-75
2022/10/04 01:23:52;;;;;;;1.20;1.10;;;;;;;6.03;100.00;98356.81;1679057;84;20996;-75
2022/10/04 01:26:36;;;;;;;0.93;0.93;;;;;;;6.04;100.00;98356.38;1679263;84;21501;-76
2022/10/04 01:29:24;;;;;;;2.10;1.02;;;;;;;6.05;100.00;98355.45;1679077;85;21305;-75
2022/10/04 01:31:52;;;;;;;1.98;1.00;;;;;;;6.06;100.00;98352.80;1679084;85;21115;-74
2022/10/04 01:34:26;;;;;;;3.95;0.90;;;;;;;6.07;100.00;98351.02;1661713;85;21089;-74
2022/10/04 01:36:58;;;;;;;2.00;0.90;;;;;;;6.10;100.00;98359.63;1679207;84;21026;-75
2022/10/04 01:39:26;;;;;;;0.90;0.90;;;;;;;6.13;100.00;98366.48;1660838;85;21020;-76
2022/10/04 01:42:08;;;;;;;1.05;0.85;;;;;;;6.12;100.00;98359.58;1678613;84;21091;-75
2022/10/04 01:44:55;;;;;;;1.10;1.10;;;;;;;6.12;100.00;98356.50;1679047;84;21121;-74
2022/10/04 01:47:58;;;;;;;1.35;1.35;;;;;;;6.13;100.00;98359.50;1678963;84;21522;-75
2022/10/04 01:50:34;;;;;;;1.10;1.10;;;;;;;6.16;100.00;98377.30;1679259;84;21161;-75
2022/10/04 01:53:26;;;;;;;1.10;1.00;;;;;;;6.15;100.00;98375.12;1678723;84;20991;-74
2022/10/04 01:56:04;;;;;;;1.25;1.00;;;;;;;6.16;100.00;98374.69;1675566;85;21146;-75
2022/10/04 01:58:36;;;;;;;1.35;0.90;;;;;;;6.16;100.00;98378.60;1679348;84;21907;-75
2022/10/04 02:01:30;;;;;;;0.90;0.90;;;;;;;6.16;100.00;98374.22;1678517;85;20939;-74
2022/10/04 02:04:04;;;;;;;2.52;1.00;;;;;;;6.18;100.00;98375.02;1637357;85;21140;-76
2022/10/04 02:06:37;;;;;;;0.90;0.90;;;;;;;6.19;100.00;98379.34;1679359;84;21082;-75
2022/10/04 02:09:16;;;;;;;0.72;0.72;;;;;;;6.20;100.00;98384.95;1678873;84;21087;-75
2022/10/04 02:11:43;;;;;;;1.10;0.90;;;;;;;6.20;100.00;98386.25;1679336;84;21924;-75
2022/10/04 02:14:14;;;;;;;0.70;0.70;;;;;;;6.23;100.00;98386.15;1678764;84;20999;-75
2022/10/04 02:16:43;;;;;;;0.70;0.70;;;;;;;6.24;100.00;98387.87;1679066;84;21086;-76
2022/10/04 02:19:10;;;;;;;2.20;0.90;;;;;;;6.24;100.00;98387.02;1678964;85;21610;-76
2022/10/04 02:21:36;;;;;;;0.80;0.80;;;;;;;6.26;100.00;98391.27;1679015;85;21477;-74
2022/10/04 02:24:06;;;;;;;3.25;1.00;;;;;;;6.25;100.00;98398.70;1679593;84;21211;-75
2022/10/04 02:26:32;;;;;;;0.90;0.90;;;;;;;6.27;100.00;98395.60;1678991;84;21094;-75
2022/10/04 02:28:58;;;;;;;1.07;0.80;;;;;;;6.28;100.00;98397.28;1679056;84;21032;-75
2022/10/04 02:34:10;;;;;;;0.90;0.90;;;;;;;6.28;100.00;98397.75;1678881;85;21145;-75
2022/10/04 02:36:37;;;;;;;2.27;1.00;;;;;;;6.30;100.00;98406.38;1679083;85;21149;-74
2022/10/04 02:39:23;;;;;;;0.90;0.90;;;;;;;6.30;100.00;98403.77;1678932;84;21598;-75
2022/10/04 02:42:02;;;;;;;0.80;0.80;;;;;;;6.30;100.00;98413.78;1660207;85;21232;-75
2022/10/04 02:44:45;;;;;;;1.95;0.90;;;;;;;6.33;100.00;98410.20;1679345;84;21071;-75
2022/10/04 02:47:22;;;;;;;1.25;1.15;;;;;;;6.34;100.00;98419.75;1679069;84;21506;-75
2022/10/04 02:49:54;;;;;;;2.02;0.80;;;;;;;6.37;100.00;98412.24;1679065;84;21625;-74
2022/10/04 02:52:35;;;;;;;2.27;1.02;;;;;;;6.38;100.00;98416.11;1679176;85;21134;-73
2022/10/04 02:55:16;;;;;;;1.32;1.00;;;;;;;6.40;100.00;98423.44;1679262;84;22206;-73
2022/10/04 02:57:43;;;;;;;1.65;0.93;;;;;;;6.42;100.00;98441.67;1678702;84;21020;-74
2022/10/04 03:00:21;;;;;;;0.82;0.82;;;;;;;6.43;100.00;98440.78;1679425;84;21067;-74
2022/10/04 03:03:25;;;;;;;1.20;0.78;;;;;;;6.43;100.00;98452.53;1678976;84;21803;-75
2022/10/04 03:06:09;;;;;;;0.80;0.80;;;;;;;6.42;100.00;98456.05;1679968;84;21012;-75
2022/10/04 03:08:48;;;;;;;0.70;0.70;;;;;;;6.38;100.00;98450.53;1678862;84;21080;-74
2022/10/04 03:11:15;;;;;;;1.47;0.72;;;;;;;6.36;100.00;98461.50;1679492;84;21425;-74
2022/10/04 03:13:45;;;;;;;1.45;0.70;;;;;;;6.31;100.00;98467.72;1678743;85;22198;-75
2022/10/04 03:16:12;;;;;;;1.72;1.00;;;;;;;6.30;100.00;98463.42;1678728;85;21852;-74
2022/10/04 03:18:39;;;;;;;0.70;0.70;;;;;;;6.26;100.00;98457.88;1678580;85;20990;-73
2022/10/04 03:21:08;;;;;;;0.70;0.70;;;;;;;6.21;100.00;98457.19;1679013;85;21107;-74
2022/10/04 03:23:34;;;;;;;0.60;0.60;;;;;;;6.19;100.00;98462.92;1678930;85;21011;-74
2022/10/04 03:26:15;;;;;;;0.60;0.60;;;;;;;6.17;100.00;98462.13;1678578;85;21229;-74
2022/10/04 03:28:41;;;;;;;0.70;0.70;;;;;;;6.15;100.00;98463.91;1679238;84;21144;-74
2022/10/04 03:31:08;;;;;;;1.57;0.80;;;;;;;6.14;100.00;98462.22;1679103;84;21055;-74
2022/10/04 03:33:35;;;;;;;3.02;0.85;;;;;;;6.14;100.00;98464.84;1656283;85;21070;-74
2022/10/04 03:36:01;;;;;;;2.52;1.50;;;;;;;6.14;100.00;98470.06;1679281;84;21094;-74
2022/10/04 03:38:28;;;;;;;1.10;1.00;;;;;;;6.12;100.00;98471.88;1679014;84;21645;-75
2022/10/04 03:40:57;;;;;;;1.55;0.98;;;;;;;6.10;100.00;98487.59;1678881;85;21527;-74
2022/10/04 03:43:26;;;;;;;1.67;1.10;;;;;;;6.09;100.00;98478.04;1679050;84;21134;-74
2022/10/04 03:45:53;;;;;;;0.75;0.75;;;;;;;6.10;100.00;98494.13;1679162;85;21058;-75
2022/10/04 03:48:37;;;;;;;0.90;0.90;;;;;;;6.08;100.00;98490.68;1678713;85;21506;-75
2022/10/04 03:51:05;;;;;;;0.62;0.62;;;;;;;6.08;100.00;98488.53;1678755;84;21071;-75
2022/10/04 03:53:41;;;;;;;1.17;1.07;;;;;;;6.05;100.00;98489.93;1679472;84;21118;-75
2022/10/04 03:56:32;;;;;;;0.90;0.90;;;;;;;6.03;100.00;98494.36;1678960;84;21012;-75
2022/10/04 03:59:00;;;;;;;0.80;0.80;;;;;;;6.01;100.00;98497.48;1679460;84;21117;-76
2022/10/04 04:01:59;;;;;;;0.80;0.80;;;;;;;6.00;100.00;98491.84;1659378;85;21146;-76
2022/10/04 04:04:47;;;;;;;0.80;0.80;;;;;;;5.98;100.00;98493.66;1679526;84;21169;-77
2022/10/04 04:07:29;;;;;;;0.93;0.65;;;;;;;5.98;100.00;98492.35;1679417;84;21146;-76
2022/10/04 04:10:21;;;;;;;1.05;0.70;;;;;;;5.97;100.00;98499.77;1679407;84;21601;-76
2022/10/04 04:13:01;;;;;;;4.78;0.75;;;;;;;5.95;100.00;98504.58;1679138;84;21577;-77
2022/10/04 04:15:30;;;;;;;3.92;0.80;;;;;;;5.95;100.00;98503.70;1679104;84;21142;-77
2022/10/04 04:18:04;;;;;;;2.67;0.70;;;;;;;5.94;100.00;98510.69;1678928;85;21514;-76
2022/10/04 04:20:37;;;;;;;0.80;0.80;;;;;;;5.94;100.00;98510.69;1679871;84;21130;-77
2022/10/04 04:23:24;;;;;;;0.80;0.80;;;;;;;5.95;100.00;98512.41;1659229;85;21105;-76
2022/10/04 04:25:55;;;;;;;1.77;1.10;;;;;;;5.94;100.00;98518.52;1680774;84;21153;-76
2022/10/04 04:28:35;;;;;;;0.90;0.90;;;;;;;5.94;100.00;98522.90;1678863;84;21503;-76
2022/10/04 04:31:22;;;;;;;0.90;0.90;;;;;;;5.94;100.00;98521.59;1679597;84;21030;-76
2022/10/04 04:33:58;;;;;;;0.82;0.80;;;;;;;5.94;100.00;98530.27;1678825;84;21543;-76
2022/10/04 04:36:22;;;;;;;22.30;1.47;;;;;;;5.92;100.00;98529.47;1679992;84;21090;-76
2022/10/04 04:41:34;;;;;;;1.75;0.70;;;;;;;5.94;100.00;98530.73;1679000;84;21090;-75
2022/10/04 04:44:03;;;;;;;0.82;0.82;;;;;;;5.94;100.00;98532.88;1678635;84;21106;-76
2022/10/04 04:46:30;;;;;;;0.78;0.72;;;;;;;5.94;100.00;98530.73;1656832;85;21750;-76
2022/10/04 04:49:02;;;;;;;1.85;0.85;;;;;;;5.95;100.00;98529.81;1676521;84;21063;-75
2022/10/04 04:51:31;;;;;;;1.10;1.00;;;;;;;5.95;100.00;98542.44;1676743;85;21600;-76
2022/10/04 04:53:58;;;;;;;1.75;0.75;;;;;;;5.95;100.00;98542.44;1676913;85;21028;-76
2022/10/04 04:56:26;;;;;;;0.80;0.80;;;;;;;5.98;100.00;98557.62;1676364;85;21189;-76
2022/10/04 04:58:54;;;;;;;0.90;0.90;;;;;;;5.98;100.00;98553.71;1676671;85;23137;-76
2022/10/04 05:01:33;;;;;;;0.72;0.62;;;;;;;6.00;100.00;98558.42;1676513;84;21082;-76
2022/10/04 05:04:11;;;;;;;0.88;0.88;;;;;;;6.01;100.00;98565.37;1676992;85;21522;-76
2022/10/04 05:06:42;;;;;;;1.17;0.90;;;;;;;6.03;100.00;98576.16;1676424;85;21083;-76
2022/10/04 05:09:33;;;;;;;0.80;0.80;;;;;;;6.07;100.00;98575.59;1676846;85;21134;-77
2022/10/04 05:12:18;;;;;;;0.90;0.90;;;;;;;6.07;100.00;98576.91;1658593;85;21667;-76
2022/10/04 05:14:50;;;;;;;0.80;0.80;;;;;;;6.08;100.00;98578.63;1676726;85;21043;-76
2022/10/04 05:17:25;;;;;;;2.10;1.07;;;;;;;6.11;100.00;98583.76;1676873;85;21090;-76
2022/10/04 05:19:54;;;;;;;1.30;1.20;;;;;;;6.14;100.00;98594.12;1676969;84;21087;-74
2022/10/04 05:22:22;;;;;;;1.20;1.10;;;;;;;6.17;100.00;98595.33;1657841;85;21333;-77
2022/10/04 05:24:52;;;;;;;1.75;0.98;;;;;;;6.19;100.00;98601.35;1676815;84;21132;-77
2022/10/04 05:27:37;;;;;;;1.70;0.98;;;;;;;6.21;100.00;98590.86;1676802;85;21054;-76
2022/10/04 05:30:29;;;;;;;1.45;0.90;;;;;;;6.21;100.00;98602.16;1676792;85;21197;-76
2022/10/04 05:33:07;;;;;;;0.90;0.90;;;;;;;6.24;100.00;98602.06;1676729;85;21070;-76
2022/10/04 05:36:15;;;;;;;0.90;0.90;;;;;;;6.26;100.00;98602.86;1677214;85;21693;-76
2022/10/04 05:39:04;;;;;;;1.75;1.02;;;;;;;6.31;100.00;98607.48;1676766;84;21247;-77
2022/10/04 05:41:39;;;;;;;1.15;1.02;;;;;;;6.36;100.00;98614.34;1676637;85;21604;-76
2022/10/04 05:44:27;;;;;;;1.00;0.93;;;;;;;6.39;100.00;98610.30;1677530;84;21090;-76
2022/10/04 05:46:59;;;;;;;0.90;0.90;;;;;;;6.42;100.00;98620.22;1674647;84;21176;-76
2022/10/04 05:49:30;;;;;;;0.80;0.80;;;;;;;6.45;100.00;98622.71;1681097;85;21122;-76
2022/10/04 05:52:05;;;;;;;0.90;0.90;;;;;;;6.49;100.00;98622.19;1681323;85;21805;-77
2022/10/04 05:54:34;;;;;;;1.37;0.90;;;;;;;6.56;100.00;98620.23;1680663;85;21110;-77
2022/10/04 05:57:26;;;;;;;2.92;1.27;;;;;;;6.60;100.00;98626.59;1681021;85;21585;-76
2022/10/04 06:00:14;;;;;;;1.20;1.10;;;;;;;6.66;100.00;98627.70;1681265;84;21070;-76
2022/10/04 06:03:05;;;;;;;1.47;1.00;;;;;;;6.73;100.00;98624.90;1681080;84;21012;-77
2022/10/04 06:05:52;;;;;;;1.67;1.17;;;;;;;6.77;100.00;98626.48;1681125;85;21646;-74
2022/10/04 06:08:33;;;;;;;1.20;1.10;;;;;;;6.81;100.00;98629.42;1681342;85;21118;-76
2022/10/04 06:11:43;;;;;;;1.65;1.20;;;;;;;6.84;100.00;98629.30;1681123;85;21027;-75
2022/10/04 06:15:01;;;;;;;3.72;1.30;;;;;;;6.91;100.00;98641.71;1681291;85;21031;-76
2022/10/04 06:17:42;;;;;;;3.50;1.35;;;;;;;6.98;100.00;98651.92;1681166;85;21193;-75
2022/10/04 06:20:26;;;;;;;3.00;1.37;;;;;;;7.07;100.00;98656.83;1668599;85;21688;-76
2022/10/04 06:22:59;;;;;;;3.23;1.70;;;;;;;7.12;100.00;98655.83;1682492;85;21078;-75
2022/10/04 06:25:36;;;;;;;1.70;1.60;;;;;;;7.15;100.00;98653.95;1680412;85;21022;-74
2022/10/04 06:28:08;;;;;;;2.67;1.10;;;;;;;7.21;100.00;98654.19;1681223;84;21577;-75
2022/10/04 06:31:04;;;;;;;1.35;1.15;;;;;;;7.26;100.00;98658.80;1681212;85;21058;-75
2022/10/04 06:33:59;;;;;;;1.27;1.17;;;;;;;7.31;100.00;98667.81;1681330;85;21174;-74
2022/10/04 06:36:46;;;;;;;1.40;1.30;;;;;;;7.31;100.00;98669.96;1678525;85;21537;-76
2022/10/04 06:39:39;;;;;;;2.65;1.55;;;;;;;7.33;100.00;98682.56;1683056;84;21039;-77
2022/10/04 06:42:49;;;;;;;1.57;1.47;;;;;;;7.38;100.00;98681.08;1681511;84;21493;-76
2022/10/04 06:45:50;;;;;;;2.17;1.47;;;;;;;7.43;100.00;98683.08;1679768;85;21107;-77
2022/10/04 06:48:46;;;;;;;1.35;1.25;;;;;;;7.51;100.00;98689.36;1678882;84;21218;-76
2022/10/04 06:51:34;;;;;;;1.77;1.42;;;;;;;7.52;100.00;98696.31;1679039;84;21117;-77
2022/10/04 06:54:45;;;;;;;1.45;1.35;;;;;;;7.52;100.00;98713.33;1679323;84;21521;-77
2022/10/04 06:57:59;;;;;;;2.77;1.30;;;;;;;7.52;100.00;98700.23;1678084;85;22414;-77
2022/10/04 07:00:25;;;;;;;2.83;1.32;;;;;;;7.49;100.00;98702.50;1679312;84;21612;-76
2022/10/04 07:03:03;;;;;;;4.90;1.50;;;;;;;7.52;100.00;98715.95;1678765;84;21708;-76
2022/10/04 07:05:36;;;;;;;2.67;1.40;;;;;;;7.52;100.00;98719.87;1679326;85;21024;-76
2022/10/04 07:08:41;;;;;;;1.70;1.60;;;;;;;7.50;100.00;98716.43;1679719;84;21040;-76
2022/10/04 07:10:53;;;;;;;1.45;1.37;;;;;;;7.50;100.00;98719.92;1643467;86;21174;-75
2022/10/04 07:13:39;;;;;;;1.50;1.40;;;;;;;7.51;100.00;98715.53;1679088;85;21596;-76
2022/10/04 07:16:12;;;;;;;3.55;1.50;;;;;;;7.52;100.00;98715.48;1679186;84;21217;-77
2022/10/04 07:19:04;;;;;;;1.87;1.77;;;;;;;7.55;100.00;98728.47;1679541;84;21015;-77
2022/10/04 07:22:02;;;;;;;2.90;2.58;;;;;;;7.58;100.00;98730.11;1678908;85;21082;-77
2022/10/04 07:24:41;;;;;;;2.72;2.30;;;;;;;7.59;100.00;98742.30;1679666;84;21082;-76
2022/10/04 07:27:09;;;;;;;3.17;1.72;;;;;;;7.63;100.00;98742.58;1679594;84;21660;-77
2022/10/04 07:29:40;;;;;;;3.20;1.95;;;;;;;7.65;100.00;98743.41;1679543;84;21112;-77
2022/10/04 07:32:18;;;;;;;3.27;2.05;;;;;;;7.67;100.00;98749.44;1678341;84;21087;-77
2022/10/04 07:35:13;;;;;;;2.90;1.90;;;;;;;7.67;100.00;98761.22;1680087;84;21608;-77
2022/10/04 07:38:00;;;;;;;2.20;2.00;;;;;;;7.69;100.00;98762.48;1679280;84;21107;-77
2022/10/04 07:40:31;;;;;;;1.90;1.80;;;;;;;7.70;100.00;98761.55;1679233;84;21015;-77
2022/10/04 07:43:12;;;;;;;2.35;1.62;;;;;;;7.73;100.00;98761.45;1679014;84;21831;-77
2022/10/04 07:45:39;;;;;;;2.08;1.98;;;;;;;7.76;100.00;98765.27;1677511;84;21023;-78
2022/10/04 07:48:21;;;;;;;2.20;1.80;;;;;;;7.79;100.00;98767.33;1696628;84;21082;-76
2022/10/04 07:51:04;;;;;;;2.70;1.80;;;;;;;7.81;100.00;98777.28;1696562;84;21121;-77
2022/10/04 07:54:16;;;;;;;4.92;2.15;;;;;;;7.84;100.00;98771.56;1697132;84;26559;-77
2022/10/04 07:57:02;;;;;;;4.62;2.55;;;;;;;7.85;100.00;98785.04;1696593;84;21251;-76
2022/10/04 07:59:47;;;;;;;2.15;2.00;;;;;;;7.85;100.00;98778.06;1691816;84;21050;-77
2022/10/04 08:02:46;;;;;;;4.37;2.85;;;;;;;7.86;100.00;98781.52;1696854;84;21600;-75
2022/10/04 08:05:28;;;;;;;3.72;2.80;;;;;;;7.85;100.00;98789.84;1696792;84;21039;-77
2022/10/04 08:08:28;;;;;;;2.98;2.55;;;;;;;7.87;100.00;98790.64;1696573;84;21054;-74
2022/10/04 08:11:29;;;;;;;3.95;2.45;;;;;;;7.90;100.00;98793.16;1696514;84;21683;-75
2022/10/04 08:14:27;;;;;;;3.30;1.80;;;;;;;7.90;100.00;98788.34;1696238;84;21108;-76
2022/10/04 08:17:11;;;;;;;3.27;2.30;;;;;;;7.93;100.00;98802.19;1696701;84;21018;-76
2022/10/04 08:19:55;;;;;;;2.40;1.90;;;;;;;7.93;100.00;98806.12;1696759;84;21030;-77
2022/10/04 08:23:02;;;;;;;4.58;2.15;;;;;;;7.96;100.00;98805.17;1696788;84;20926;-76
2022/10/04 08:25:55;;;;;;;2.05;1.85;;;;;;;8.01;100.00;98801.93;1696583;84;21655;-76
2022/10/04 08:32:03;;;;;;;2.90;2.22;;;;;;;8.11;100.00;98811.16;1587039;90;21123;-76
2022/10/04 08:34:51;;;;;;;3.60;2.30;;;;;;;8.15;100.00;98812.78;1514290;94;21231;-77
2022/10/04 08:37:41;;;;;;;3.08;2.22;;;;;;;8.23;100.00;98810.33;1567400;87;21138;-74
2022/10/04 08:40:35;;;;;;;2.25;1.98;;;;;;;8.23;100.00;98827.37;1674416;84;21131;-77
2022/10/04 08:43:41;;;;;;;5.60;3.20;;;;;;;8.22;100.00;98841.37;1696609;84;20975;-76
2022/10/04 08:46:58;;;;;;;2.90;2.33;;;;;;;8.21;100.00;98831.81;1686336;84;21024;-77
2022/10/04 08:49:50;;;;;;;2.92;2.00;;;;;;;8.18;99.32;98845.41;1681351;85;21086;-76
2022/10/04 08:53:09;;;;;;;2.58;2.37;;;;;;;8.17;99.42;98828.45;1681092;85;22554;-77
2022/10/04 08:55:57;;;;;;;6.05;2.67;;;;;;;8.17;99.62;98844.17;1681165;84;21159;-76
2022/10/04 08:58:37;;;;;;;2.83;2.62;;;;;;;8.15;99.71;98844.23;1680866;84;21163;-76
2022/10/04 09:01:40;;;;;;;2.70;2.00;;;;;;;8.15;99.99;98860.38;1681382;84;21110;-75
2022/10/04 09:04:41;;;;;;;3.12;2.65;;;;;;;8.13;100.00;98851.27;1681203;85;21114;-77
2022/10/04 09:07:38;;;;;;;5.20;2.85;;;;;;;8.12;100.00;98861.36;1681051;85;21608;-76
2022/10/04 09:10:22;;;;;;;4.12;2.33;;;;;;;8.11;100.00;98866.19;1681173;85;21174;-76
2022/10/04 09:13:13;;;;;;;5.62;2.60;;;;;;;8.08;100.00;98871.53;1680701;85;21075;-76
2022/10/04 09:15:55;;;;;;;5.87;2.72;;;;;;;8.07;100.00;98877.70;1681722;84;20990;-77
2022/10/04 09:18:52;;;;;;;3.60;2.45;;;;;;;8.07;100.00;98868.96;1681366;84;21542;-76
2022/10/04 09:21:55;;;;;;;3.77;2.42;;;;;;;8.08;100.00;98891.19;1681028;85;21139;-77
2022/10/04 09:25:02;;;;;;;2.50;2.30;;;;;;;8.07;100.00;98885.56;1681041;85;21775;-75
2022/10/04 09:28:05;;;;;;;4.83;3.02;;;;;;;8.08;100.00;98898.20;1680982;84;20957;-75
2022/10/04 09:31:08;;;;;;;5.12;2.40;;;;;;;8.08;100.00;98905.59;1686894;82;21062;-77
2022/10/04 09:33:58;;;;;;;3.12;2.30;;;;;;;8.10;100.00;98895.06;1717595;81;21016;-77
2022/10/04 09:36:40;;;;;;;3.45;2.80;;;;;;;8.14;100.00;98906.70;1706403;81;21145;-77
2022/10/04 09:39:39;;;;;;;2.87;2.52;;;;;;;8.17;100.00;98907.91;1705169;82;21639;-76
2022/10/04 09:42:21;;;;;;;4.20;2.70;;;;;;;8.21;100.00;98907.81;1650124;84;21006;-76
2022/10/04 09:45:13;;;;;;;3.90;2.80;;;;;;;8.25;100.00;98906.78;1696925;84;21177;-74
2022/10/04 09:47:44;;;;;;;7.70;3.00;;;;;;;8.29;100.00;98918.42;1713932;83;21020;-79
2022/10/04 09:50:36;;;;;;;4.55;2.80;;;;;;;8.34;100.00;98914.34;1729529;81;21568;-78
2022/10/04 09:53:29;;;;;;;4.60;2.70;;;;;;;8.38;100.00;98914.16;1750391;81;21111;-73
2022/10/04 09:56:33;;;;;;;5.58;3.70;;;;;;;8.43;100.00;98914.03;1715299;81;21090;-72
2022/10/04 09:59:36;;;;;;;3.75;3.05;;;;;;;8.48;100.00;98909.48;1689632;84;21130;-73
2022/10/04 10:02:27;;;;;;;4.15;2.80;;;;;;;8.51;100.00;98913.30;1713544;83;21476;-74
2022/10/04 10:05:30;;;;;;;3.60;2.72;;;;;;;8.53;100.00;98935.08;1687358;84;21106;-72
2022/10/04 10:08:25;;;;;;;4.60;2.72;;;;;;;8.53;99.51;98918.50;1714270;83;22255;-73
2022/10/04 10:14:34;;;;;;;3.58;2.72;;;;;;;8.52;100.00;98926.83;1709603;83;21538;-72
2022/10/04 10:17:14;;;;;;;3.47;2.20;;;;;;;8.48;99.93;98938.31;1690539;83;21107;-73
2022/10/04 10:20:21;;;;;;;3.70;2.42;;;;;;;8.47;99.75;98927.45;1689476;84;21081;-73
2022/10/04 10:23:09;;;;;;;2.42;2.27;;;;;;;8.47;99.94;98934.00;1709341;83;21234;-73
2022/10/04 10:26:14;;;;;;;3.55;2.55;;;;;;;8.46;98.58;98929.66;1689376;84;23064;-73
2022/10/04 10:28:53;;;;;;;4.80;2.37;;;;;;;8.46;98.60;98945.39;1714328;83;21641;-73
2022/10/04 10:32:06;;;;;;;4.90;2.55;;;;;;;8.46;97.83;98944.54;1688156;84;21530;-72
2022/10/04 10:35:12;;;;;;;2.47;2.27;;;;;;;8.45;97.94;98954.15;1714453;83;21105;-73
2022/10/04 10:38:05;;;;;;;4.20;2.22;;;;;;;8.43;98.17;98971.70;1689680;84;21276;-74
2022/10/04 10:40:52;;;;;;;2.95;2.37;;;;;;;8.40;97.48;98961.28;1714485;83;21028;-73
2022/10/04 10:43:56;;;;;;;3.17;2.58;;;;;;;8.33;97.64;98966.34;1689412;84;21635;-73
2022/10/04 10:46:41;;;;;;;6.20;2.75;;;;;;;8.30;98.14;98966.45;1707562;83;21044;-73
2022/10/04 10:49:38;;;;;;;3.05;2.40;;;;;;;8.27;98.42;98962.62;1664359;85;21070;-73
2022/10/04 10:52:33;;;;;;;2.67;2.30;;;;;;;8.29;99.03;98971.31;1703223;83;21594;-72
2022/10/04 10:55:34;;;;;;;4.05;2.30;;;;;;;8.33;99.02;98969.81;1665287;85;21135;-73
2022/10/04 10:58:43;;;;;;;3.02;2.20;;;;;;;8.38;98.99;98974.91;1701844;84;21126;-73
2022/10/04 11:01:42;;;;;;;6.20;2.70;;;;;;;8.46;98.73;98970.30;1664031;85;21117;-72
2022/10/04 11:04:50;;;;;;;3.27;2.55;;;;;;;8.51;98.60;98966.20;1703158;84;21035;-73
2022/10/04 11:07:55;;;;;;;5.90;2.37;;;;;;;8.55;98.06;98963.40;1665600;85;21114;-72
2022/10/04 11:11:07;;;;;;;7.17;2.40;;;;;;;8.62;97.51;98967.97;1702941;83;21107;-73
2022/10/04 11:14:18;;;;;;;2.75;2.35;;;;;;;8.67;96.46;98963.89;1665316;85;21027;-72
2022/10/04 11:17:42;;;;;;;3.47;2.70;;;;;;;8.71;95.68;98966.34;1649279;86;21150;-73
2022/10/04 11:20:23;;;;;;;2.27;2.08;;;;;;;8.78;95.87;98970.92;1667765;85;21098;-73
2022/10/04 11:23:29;;;;;;;3.85;3.30;;;;;;;8.85;96.24;98975.02;1710626;83;21250;-73
2022/10/04 11:26:26;;;;;;;8.13;4.60;;;;;;;8.84;94.75;98977.27;1663896;85;21078;-73
2022/10/04 11:29:26;;;;;;;4.05;3.65;;;;;;;8.83;94.15;98967.67;1657890;86;21130;-72
2022/10/04 11:32:06;;;;;;;5.25;3.08;;;;;;;8.81;93.54;98989.18;1663850;85;20996;-73
2022/10/04 11:35:10;;;;;;;5.37;2.83;;;;;;;8.80;93.21;98965.16;1665325;85;21071;-72
2022/10/04 11:38:26;;;;;;;4.03;2.90;;;;;;;8.83;93.12;98978.17;1702292;84;21183;-72
2022/10/04 11:41:10;;;;;;;5.65;3.20;;;;;;;8.85;93.09;98976.34;1664841;85;21118;-73
2022/10/04 11:43:45;;;;;;;2.92;2.62;;;;;;;8.88;92.14;98978.86;1702849;83;21056;-74
2022/10/04 11:46:20;;;;;;;3.17;2.58;;;;;;;8.92;91.87;98983.06;1671414;84;21109;-73
2022/10/04 11:49:01;;;;;;;3.40;2.80;;;;;;;8.99;91.72;98990.72;1669866;84;21139;-73
2022/10/04 11:52:05;;;;;;;4.40;3.10;;;;;;;9.02;91.59;98991.46;1691008;84;21248;-73
2022/10/04 11:54:54;;;;;;;4.15;2.37;;;;;;;9.05;91.77;98999.70;1703752;83;21629;-72
2022/10/04 11:57:44;;;;;;;3.10;2.70;;;;;;;9.08;91.25;98996.96;1633636;87;21046;-72
2022/10/04 12:00:19;;;;;;;6.37;3.30;;;;;;;9.10;90.84;98995.98;1702912;84;21158;-72
2022/10/04 12:03:20;;;;;;;4.03;3.02;;;;;;;9.12;90.87;99001.17;1691189;84;21094;-72
2022/10/04 12:06:37;;;;;;;4.67;2.75;;;;;;;9.15;90.25;99001.06;1703609;84;21110;-72
2022/10/04 12:09:24;;;;;;;5.00;2.45;;;;;;;9.19;89.48;98996.09;1672460;84;21023;-73
2022/10/04 12:12:35;;;;;;;4.72;2.75;;;;;;;9.20;88.69;98997.81;1703050;83;21656;-73
2022/10/04 12:15:13;;;;;;;2.80;2.60;;;;;;;9.23;88.82;99000.33;1691034;84;21023;-72
2022/10/04 12:18:25;;;;;;;2.85;2.22;;;;;;;9.31;88.86;99007.89;1703211;83;21083;-73
2022/10/04 12:21:12;;;;;;;4.42;2.58;;;;;;;9.35;87.73;99008.66;1690410;84;21945;-73
2022/10/04 12:23:53;;;;;;;3.17;2.87;;;;;;;9.40;87.12;99001.47;1703349;83;21114;-73
2022/10/04 12:26:31;;;;;;;4.37;3.20;;;;;;;9.45;87.01;99010.02;1703026;83;21048;-72
2022/10/04 12:29:28;;;;;;;4.55;2.65;;;;;;;9.52;86.95;99010.17;1691327;84;21130;-73
2022/10/04 12:32:13;;;;;;;2.17;1.98;;;;;;;9.56;87.14;99009.59;1703451;83;21616;-72
2022/10/04 12:35:15;;;;;;;2.17;1.98;;;;;;;9.58;85.75;99004.70;1702096;83;21796;-73
2022/10/04 12:38:16;;;;;;;3.60;2.60;;;;;;;9.59;85.87;99005.08;1690783;84;21071;-72
2022/10/04 12:40:57;;;;;;;5.03;2.45;;;;;;;9.64;86.21;99008.84;1690833;84;21019;-72
2022/10/04 12:43:40;;;;;;;3.02;2.50;;;;;;;9.63;85.45;99005.38;1702955;84;21696;-71
2022/10/04 12:46:22;;;;;;;4.90;2.65;;;;;;;9.64;86.44;99015.41;1691262;84;21589;-71
2022/10/04 12:49:31;;;;;;;2.62;2.20;;;;;;;9.64;85.79;99020.20;1703409;84;21258;-71
2022/10/04 12:52:10;;;;;;;2.12;2.02;;;;;;;9.62;85.02;99026.45;1690913;84;21134;-72
2022/10/04 12:55:06;;;;;;;3.10;2.50;;;;;;;9.55;85.29;99027.13;1690784;84;21515;-74
2022/10/04 12:58:00;;;;;;;5.53;4.22;;;;;;;9.52;86.08;99021.99;1690915;84;21063;-72
2022/10/04 13:00:28;;;;;;;7.08;3.92;;;;;;;9.52;86.09;99034.28;1690290;84;21089;-71
2022/10/04 13:03:23;;;;;;;10.70;6.58;;;;;;;9.47;86.62;99033.13;1702978;84;21149;-71
2022/10/04 13:06:12;;;;;;;6.17;3.58;;;;;;;9.44;87.69;99035.88;1691045;84;21581;-71
2022/10/04 13:09:08;;;;;;;3.25;3.05;;;;;;;9.40;87.55;99040.39;1704097;83;21123;-72
2022/10/04 13:11:55;;;;;;;;;;;;;;;9.39;87.82;99042.59;1693430;84;20999;-71